createdAt,value
2019-02-24T00:01:18.179Z,9.60
2019-02-24T00:03:46.576Z,10.30
2019-02-24T00:06:15.020Z,10.40
2019-02-24T00:08:43.469Z,11.57
2019-02-24T00:11:11.892Z,10.83
2019-02-24T00:13:40.432Z,11.40
2019-02-24T00:16:08.843Z,11.17
2019-02-24T00:18:37.248Z,11.20
2019-02-24T00:21:05.672Z,10.80
2019-02-24T00:23:34.108Z,11.17
2019-02-24T00:26:02.521Z,12.07
2019-02-24T00:28:31.174Z,11.30
2019-02-24T00:30:59.649Z,12.47
2019-02-24T00:33:28.058Z,11.73
2019-02-24T00:35:56.494Z,11.87
2019-02-24T00:38:24.917Z,11.17
2019-02-24T00:40:53.320Z,11.40
2019-02-24T00:43:21.734Z,11.47
2019-02-24T00:45:50.180Z,11.70
2019-02-24T00:48:19.621Z,13.13
2019-02-24T00:50:48.924Z,11.10
2019-02-24T00:53:17.324Z,11.53
2019-02-24T00:55:45.722Z,12.03
2019-02-24T00:58:16.385Z,11.80
2019-02-24T01:00:44.291Z,12.47
2019-02-24T01:03:12.704Z,12.73
2019-02-24T01:05:41.101Z,11.90
2019-02-24T01:08:09.788Z,11.47
2019-02-24T01:10:38.197Z,11.20
2019-02-24T01:13:06.623Z,11.87
2019-02-24T01:15:35.030Z,11.57
2019-02-24T01:18:03.449Z,12.10
2019-02-24T01:20:31.856Z,13.10
2019-02-24T01:23:00.270Z,12.63
2019-02-24T01:25:28.668Z,11.30
2019-02-24T01:27:57.085Z,13.60
2019-02-24T01:30:25.492Z,13.90
2019-02-24T01:32:53.912Z,13.60
2019-02-24T01:35:22.319Z,13.47
2019-02-24T01:37:50.728Z,15.63
2019-02-24T01:40:19.129Z,15.00
2019-02-24T01:42:47.549Z,17.57
2019-02-24T01:45:15.948Z,17.73
2019-02-24T01:47:44.365Z,17.97
2019-02-24T01:50:12.764Z,14.47
2019-02-24T01:52:41.160Z,14.30
2019-02-24T01:55:09.580Z,14.57
2019-02-24T01:57:37.992Z,13.60
2019-02-24T02:00:09.470Z,12.27
2019-02-24T02:02:37.884Z,12.70
2019-02-24T02:05:07.755Z,12.20
2019-02-24T02:07:36.160Z,12.37
2019-02-24T02:10:05.709Z,12.30
2019-02-24T02:12:34.109Z,12.53
2019-02-24T02:15:02.521Z,14.00
2019-02-24T02:17:31.008Z,15.50
2019-02-24T02:19:59.425Z,15.37
2019-02-24T02:22:27.823Z,14.97
2019-02-24T02:24:56.241Z,14.57
2019-02-24T02:27:24.669Z,13.63
2019-02-24T02:29:53.101Z,15.80
2019-02-24T02:32:21.508Z,13.10
2019-02-24T02:34:49.916Z,14.30
2019-02-24T02:37:20.588Z,13.60
2019-02-24T02:39:49.097Z,14.03
2019-02-24T02:42:17.537Z,12.47
2019-02-24T02:44:45.945Z,13.03
2019-02-24T02:47:14.357Z,14.10
2019-02-24T02:49:42.850Z,12.80
2019-02-24T02:52:11.248Z,13.83
2019-02-24T02:54:39.704Z,12.97
2019-02-24T02:57:08.117Z,12.43
2019-02-24T02:59:36.680Z,13.43
2019-02-24T03:02:05.088Z,14.10
2019-02-24T03:04:33.492Z,15.10
2019-02-24T03:07:09.338Z,13.03
2019-02-24T03:09:37.746Z,13.17
2019-02-24T03:12:06.158Z,13.37
2019-02-24T03:14:34.556Z,13.20
2019-02-24T03:17:02.984Z,13.13
2019-02-24T03:19:31.389Z,13.40
2019-02-24T03:21:59.835Z,12.80
2019-02-24T03:24:28.290Z,12.70
2019-02-24T03:26:56.712Z,13.10
2019-02-24T03:29:25.119Z,13.67
2019-02-24T03:31:53.521Z,12.67
2019-02-24T03:34:21.928Z,12.60
2019-02-24T03:36:50.345Z,14.47
2019-02-24T03:39:18.749Z,12.37
2019-02-24T03:41:47.164Z,12.67
2019-02-24T03:44:15.565Z,14.40
2019-02-24T03:46:43.992Z,14.40
2019-02-24T03:49:12.417Z,14.07
2019-02-24T03:51:40.829Z,13.87
2019-02-24T03:54:09.236Z,13.80
2019-02-24T03:56:37.718Z,14.60
2019-02-24T03:59:14.677Z,14.93
2019-02-24T04:01:36.368Z,14.33
2019-02-24T04:04:04.786Z,14.60
2019-02-24T04:06:33.332Z,15.20
2019-02-24T04:09:01.737Z,15.53
2019-02-24T04:11:30.182Z,14.50
2019-02-24T04:13:58.592Z,15.70
2019-02-24T04:16:28.244Z,14.90
2019-02-24T04:18:56.636Z,15.37
2019-02-24T04:21:25.069Z,15.33
2019-02-24T04:23:53.468Z,14.17
2019-02-24T04:26:21.952Z,15.20
2019-02-24T04:28:50.391Z,14.93
2019-02-24T04:31:18.817Z,14.77
2019-02-24T04:33:47.221Z,15.10
2019-02-24T04:36:15.625Z,15.50
2019-02-24T04:38:44.042Z,15.50
2019-02-24T04:41:12.440Z,15.97
2019-02-24T04:43:40.858Z,16.33
2019-02-24T04:46:09.539Z,15.00
2019-02-24T04:48:38.621Z,15.37
2019-02-24T04:51:07.016Z,16.33
2019-02-24T04:53:35.432Z,15.73
2019-02-24T04:56:03.830Z,16.00
2019-02-24T04:58:32.244Z,16.33
2019-02-24T05:01:00.653Z,13.63
2019-02-24T05:03:29.077Z,15.50
2019-02-24T05:05:57.478Z,14.20
2019-02-24T05:08:27.527Z,16.37
2019-02-24T05:10:55.924Z,15.87
2019-02-24T05:13:24.354Z,15.03
2019-02-24T05:15:52.777Z,15.67
2019-02-24T05:18:21.233Z,15.73
2019-02-24T05:20:49.634Z,16.50
2019-02-24T05:23:18.044Z,17.10
2019-02-24T05:25:46.458Z,15.83
2019-02-24T05:28:14.862Z,16.83
2019-02-24T05:30:43.264Z,16.23
2019-02-24T05:33:11.973Z,17.60
2019-02-24T05:35:40.377Z,15.97
2019-02-24T05:38:08.797Z,16.57
2019-02-24T05:40:37.197Z,15.57
2019-02-24T05:43:06.043Z,16.10
2019-02-24T05:45:34.535Z,17.00
2019-02-24T05:48:03.250Z,17.00
2019-02-24T05:50:31.640Z,16.50
2019-02-24T05:53:00.213Z,18.13
2019-02-24T05:55:28.633Z,16.77
2019-02-24T05:57:57.044Z,19.00
2019-02-24T06:00:25.490Z,16.97
2019-02-24T06:02:53.898Z,17.67
2019-02-24T06:05:22.312Z,16.53
2019-02-24T06:07:50.713Z,17.53
2019-02-24T06:10:19.142Z,18.70
2019-02-24T06:12:47.536Z,16.97
2019-02-24T06:15:15.946Z,17.50
2019-02-24T06:17:44.349Z,16.93
2019-02-24T06:20:12.767Z,18.40
2019-02-24T06:22:41.183Z,16.97
2019-02-24T06:25:09.610Z,17.10
2019-02-24T06:27:38.021Z,17.60
2019-02-24T06:30:08.472Z,16.77
2019-02-24T06:32:36.871Z,19.13
2019-02-24T06:35:07.434Z,19.13
2019-02-24T06:37:35.854Z,18.07
2019-02-24T06:40:06.012Z,18.20
2019-02-24T06:42:34.419Z,17.00
2019-02-24T06:45:02.841Z,19.20
2019-02-24T06:47:31.408Z,17.80
2019-02-24T06:49:59.817Z,16.53
2019-02-24T06:52:28.271Z,18.90
2019-02-24T06:54:56.687Z,17.10
2019-02-24T06:57:25.109Z,18.40
2019-02-24T06:59:53.602Z,18.33
2019-02-24T07:02:22.008Z,20.10
2019-02-24T07:04:50.412Z,18.33
2019-02-24T07:07:18.824Z,17.40
2019-02-24T07:09:47.224Z,18.50
2019-02-24T07:12:15.637Z,18.33
2019-02-24T07:14:44.046Z,16.80
2019-02-24T07:17:12.572Z,18.70
2019-02-24T07:19:40.992Z,19.43
2019-02-24T07:22:09.417Z,18.07
2019-02-24T07:24:37.907Z,17.77
2019-02-24T07:27:07.718Z,17.17
2019-02-24T07:29:36.145Z,18.40
2019-02-24T07:32:04.561Z,18.77
2019-02-24T07:34:32.960Z,18.33
2019-02-24T07:37:01.392Z,18.30
2019-02-24T07:39:29.845Z,18.83
2019-02-24T07:41:58.273Z,19.07
2019-02-24T07:44:26.680Z,16.43
2019-02-24T07:46:55.125Z,17.93
2019-02-24T07:49:23.535Z,17.90
2019-02-24T07:51:51.948Z,17.90
2019-02-24T07:54:20.370Z,17.00
2019-02-24T07:56:48.788Z,18.27
2019-02-24T07:59:17.184Z,18.03
2019-02-24T08:01:45.603Z,17.00
2019-02-24T08:04:14.005Z,17.57
2019-02-24T08:06:42.417Z,18.70
2019-02-24T08:09:10.834Z,17.67
2019-02-24T08:11:39.272Z,18.40
2019-02-24T08:14:07.677Z,16.67
2019-02-24T08:16:37.316Z,17.87
2019-02-24T08:19:05.725Z,17.33
2019-02-24T08:21:34.144Z,17.43
2019-02-24T08:24:02.548Z,16.70
2019-02-24T08:26:31.026Z,19.37
2019-02-24T08:28:59.453Z,17.90
2019-02-24T08:31:27.860Z,17.40
2019-02-24T08:33:56.276Z,17.37
2019-02-24T08:36:24.742Z,18.23
2019-02-24T08:38:53.200Z,17.57
2019-02-24T08:41:21.642Z,18.00
2019-02-24T08:43:50.050Z,16.83
2019-02-24T08:46:18.485Z,16.10
2019-02-24T08:48:46.896Z,16.93
2019-02-24T08:51:15.302Z,18.03
2019-02-24T08:53:43.716Z,21.97
2019-02-24T08:56:12.124Z,18.57
2019-02-24T08:58:40.549Z,16.90
2019-02-24T09:01:09.052Z,20.00
2019-02-24T09:03:39.307Z,18.30
2019-02-24T09:06:07.710Z,24.30
2019-02-24T09:08:36.676Z,22.07
2019-02-24T09:11:05.354Z,19.43
2019-02-24T09:13:34.313Z,16.93
2019-02-24T09:16:02.732Z,16.90
2019-02-24T09:18:31.152Z,15.97
2019-02-24T09:20:59.578Z,14.07
2019-02-24T09:23:28.051Z,20.23
2019-02-24T09:25:56.452Z,16.70
2019-02-24T09:28:24.872Z,17.20
2019-02-24T09:31:00.360Z,20.07
2019-02-24T09:33:23.615Z,18.13
2019-02-24T09:35:52.024Z,15.43
2019-02-24T09:38:20.456Z,16.17
2019-02-24T09:40:48.858Z,15.50
2019-02-24T09:43:17.272Z,16.80
2019-02-24T09:45:45.697Z,15.60
2019-02-24T09:48:14.116Z,16.00
2019-02-24T09:50:42.516Z,16.70
2019-02-24T09:53:11.000Z,15.77
2019-02-24T09:55:39.461Z,15.43
2019-02-24T09:58:07.866Z,15.00
2019-02-24T10:00:36.268Z,16.73
2019-02-24T10:03:04.680Z,14.70
2019-02-24T10:05:33.105Z,14.57
2019-02-24T10:08:01.504Z,15.63
2019-02-24T10:10:29.932Z,16.43
2019-02-24T10:12:58.337Z,16.27
2019-02-24T10:15:26.749Z,17.00
2019-02-24T10:17:55.159Z,15.30
2019-02-24T10:20:23.569Z,14.50
2019-02-24T10:22:51.987Z,16.13
2019-02-24T10:25:20.400Z,15.40
2019-02-24T10:27:48.812Z,15.37
2019-02-24T10:30:17.497Z,15.50
2019-02-24T10:32:45.948Z,15.83
2019-02-24T10:35:14.372Z,14.43
2019-02-24T10:37:42.776Z,17.50
2019-02-24T10:40:15.503Z,15.30
2019-02-24T10:42:44.074Z,16.20
2019-02-24T10:45:15.493Z,15.30
2019-02-24T10:47:43.903Z,16.93
2019-02-24T10:50:14.288Z,16.67
2019-02-24T10:52:42.676Z,15.10
2019-02-24T10:55:11.341Z,16.13
2019-02-24T10:57:39.752Z,16.27
2019-02-24T11:00:16.079Z,16.60
2019-02-24T11:02:45.056Z,15.57
2019-02-24T11:05:14.679Z,15.97
2019-02-24T11:07:43.081Z,14.90
2019-02-24T11:10:11.568Z,17.10
2019-02-24T11:12:40.544Z,15.57
2019-02-24T11:15:11.073Z,16.07
2019-02-24T11:17:39.500Z,15.07
2019-02-24T11:20:11.205Z,16.73
2019-02-24T11:22:39.613Z,16.33
2019-02-24T11:25:09.989Z,14.77
2019-02-24T11:27:38.405Z,16.60
2019-02-24T11:30:11.961Z,15.03
2019-02-24T11:32:40.373Z,14.50
2019-02-24T11:35:12.996Z,15.67
2019-02-24T11:37:41.453Z,17.20
2019-02-24T11:40:19.428Z,14.60
2019-02-24T11:42:47.855Z,16.50
2019-02-24T11:45:16.272Z,15.77
2019-02-24T11:47:44.705Z,14.33
2019-02-24T11:50:13.501Z,14.20
2019-02-24T11:52:41.974Z,13.90
2019-02-24T11:55:10.850Z,13.40
2019-02-24T11:57:39.487Z,14.60
2019-02-24T12:00:15.626Z,16.20
2019-02-24T12:02:44.049Z,13.37
2019-02-24T12:05:12.457Z,16.43
2019-02-24T12:07:40.881Z,14.80
2019-02-24T12:10:13.348Z,15.53
2019-02-24T12:12:41.772Z,14.97
2019-02-24T12:15:14.519Z,14.30
2019-02-24T12:17:42.932Z,16.40
2019-02-24T12:20:12.671Z,14.70
2019-02-24T12:22:41.147Z,15.37
2019-02-24T12:25:11.667Z,15.27
2019-02-24T12:27:40.096Z,15.57
2019-02-24T12:30:13.896Z,15.23
2019-02-24T12:32:43.401Z,16.50
2019-02-24T12:35:11.811Z,15.67
2019-02-24T12:37:40.369Z,16.43
2019-02-24T12:40:10.937Z,15.20
2019-02-24T12:42:39.358Z,15.97
2019-02-24T12:45:09.703Z,15.80
2019-02-24T12:47:38.131Z,15.53
2019-02-24T12:50:11.329Z,16.00
2019-02-24T12:52:39.753Z,16.83
2019-02-24T12:55:09.407Z,14.90
2019-02-24T12:57:37.824Z,14.67
2019-02-24T13:00:16.998Z,16.03
2019-02-24T13:02:45.451Z,15.73
2019-02-24T13:05:14.236Z,15.87
2019-02-24T13:07:44.297Z,14.83
2019-02-24T13:10:16.023Z,17.20
2019-02-24T13:12:45.988Z,16.77
2019-02-24T13:15:14.467Z,16.70
2019-02-24T13:17:43.262Z,15.33
2019-02-24T13:20:12.010Z,15.20
2019-02-24T13:22:40.443Z,15.97
2019-02-24T13:25:11.090Z,13.87
2019-02-24T13:27:39.515Z,14.23
2019-02-24T13:30:16.540Z,12.37
2019-02-24T13:32:44.960Z,11.27
2019-02-24T13:35:13.359Z,15.70
2019-02-24T13:37:41.779Z,16.10
2019-02-24T13:40:12.436Z,18.17
2019-02-24T13:42:40.845Z,17.70
2019-02-24T13:45:12.622Z,19.40
2019-02-24T13:47:41.024Z,19.53
2019-02-24T13:50:09.758Z,17.97
2019-02-24T13:52:38.180Z,19.10
2019-02-24T13:55:09.400Z,18.60
2019-02-24T13:57:37.815Z,19.90
2019-02-24T14:00:09.313Z,18.37
2019-02-24T14:02:37.719Z,19.70
2019-02-24T14:05:06.213Z,18.77
2019-02-24T14:07:34.635Z,17.97
2019-02-24T14:10:03.421Z,19.77
2019-02-24T14:12:31.824Z,16.90
2019-02-24T14:15:00.256Z,18.13
2019-02-24T14:17:28.738Z,18.97
2019-02-24T14:19:57.179Z,29.97
2019-02-24T14:22:25.614Z,19.50
2019-02-24T14:24:54.189Z,16.07
2019-02-24T14:27:22.954Z,16.83
2019-02-24T14:29:51.430Z,14.60
2019-02-24T14:32:19.844Z,15.40
2019-02-24T14:34:48.301Z,15.07
2019-02-24T14:37:16.746Z,15.27
2019-02-24T14:39:45.225Z,15.77
2019-02-24T14:42:13.662Z,14.30
2019-02-24T14:44:42.117Z,13.30
2019-02-24T14:47:10.512Z,14.73
2019-02-24T14:49:38.919Z,15.00
2019-02-24T14:52:07.344Z,15.17
2019-02-24T14:54:35.754Z,14.57
2019-02-24T14:57:04.453Z,13.80
2019-02-24T14:59:32.855Z,14.00
2019-02-24T15:02:01.294Z,13.33
2019-02-24T15:04:29.709Z,14.23
2019-02-24T15:06:58.134Z,15.00
2019-02-24T15:09:26.547Z,14.27
2019-02-24T15:11:54.971Z,13.77
2019-02-24T15:14:23.412Z,13.87
2019-02-24T15:16:51.832Z,12.10
2019-02-24T15:19:20.239Z,12.73
2019-02-24T15:21:48.667Z,11.87
2019-02-24T15:24:17.086Z,12.80
2019-02-24T15:26:45.505Z,13.00
2019-02-24T15:29:13.914Z,13.23
2019-02-24T15:31:43.563Z,10.77
2019-02-24T15:34:11.977Z,13.57
2019-02-24T15:36:40.399Z,12.83
2019-02-24T15:39:08.804Z,14.00
2019-02-24T15:41:37.224Z,13.23
2019-02-24T15:44:05.647Z,13.63
2019-02-24T15:46:34.065Z,13.13
2019-02-24T15:49:02.484Z,14.70
2019-02-24T15:51:30.909Z,14.20
2019-02-24T15:53:59.319Z,15.60
2019-02-24T15:56:27.741Z,14.87
2019-02-24T15:58:56.157Z,14.17
2019-02-24T16:01:24.577Z,14.20
2019-02-24T16:03:52.985Z,13.27
2019-02-24T16:06:21.407Z,14.60
2019-02-24T16:08:49.827Z,14.77
2019-02-24T16:11:18.235Z,13.60
2019-02-24T16:13:46.694Z,13.47
2019-02-24T16:16:15.135Z,14.60
2019-02-24T16:18:43.546Z,12.90
2019-02-24T16:21:11.968Z,13.27
2019-02-24T16:23:40.379Z,14.13
2019-02-24T16:26:08.826Z,13.53
2019-02-24T16:28:37.236Z,13.13
2019-02-24T16:31:05.646Z,13.23
2019-02-24T16:33:34.056Z,13.87
2019-02-24T16:36:02.503Z,14.90
2019-02-24T16:38:30.921Z,13.57
2019-02-24T16:40:59.340Z,13.53
2019-02-24T16:43:27.760Z,13.40
2019-02-24T16:45:56.176Z,15.93
2019-02-24T16:48:24.640Z,14.10
2019-02-24T16:50:53.056Z,14.33
2019-02-24T16:53:21.483Z,14.27
2019-02-24T16:55:49.891Z,13.50
2019-02-24T16:58:18.332Z,15.37
2019-02-24T17:00:47.068Z,13.30
2019-02-24T17:03:19.960Z,13.90
2019-02-24T17:05:45.709Z,13.53
2019-02-24T17:08:14.131Z,13.60
2019-02-24T17:10:42.547Z,13.43
2019-02-24T17:13:10.992Z,14.60
2019-02-24T17:15:39.390Z,13.67
2019-02-24T17:18:07.816Z,14.50
2019-02-24T17:20:36.229Z,14.60
2019-02-24T17:23:04.650Z,17.40
2019-02-24T17:25:33.127Z,15.73
2019-02-24T17:28:01.620Z,15.20
2019-02-24T17:30:30.060Z,15.30
2019-02-24T17:32:58.562Z,13.87
2019-02-24T17:35:26.955Z,14.27
2019-02-24T17:37:55.382Z,13.70
2019-02-24T17:40:23.798Z,14.97
2019-02-24T17:42:52.208Z,16.13
2019-02-24T17:45:20.637Z,15.70
2019-02-24T17:47:49.057Z,14.30
2019-02-24T17:50:18.029Z,16.30
2019-02-24T17:52:46.441Z,16.80
2019-02-24T17:55:16.000Z,15.57
2019-02-24T17:57:44.668Z,15.50
2019-02-24T18:00:47.425Z,15.13
2019-02-24T18:03:15.870Z,17.20
2019-02-24T18:05:44.304Z,15.70
2019-02-24T18:08:12.732Z,15.33
2019-02-24T18:10:41.204Z,16.03
2019-02-24T18:13:09.627Z,16.37
2019-02-24T18:15:38.304Z,17.00
2019-02-24T18:18:06.728Z,14.87
2019-02-24T18:20:35.166Z,16.60
2019-02-24T18:23:03.572Z,15.73
2019-02-24T18:25:32.025Z,16.03
2019-02-24T18:28:00.457Z,16.70
2019-02-24T18:30:30.417Z,16.50
2019-02-24T18:33:00.361Z,16.50
2019-02-24T18:35:28.792Z,17.87
2019-02-24T18:37:59.107Z,16.50
2019-02-24T18:40:27.517Z,19.40
2019-02-24T18:43:00.110Z,17.97
2019-02-24T18:45:26.065Z,17.40
2019-02-24T18:47:54.478Z,19.50
2019-02-24T18:50:22.942Z,17.20
2019-02-24T18:52:51.384Z,16.57
2019-02-24T18:55:19.889Z,19.83
2019-02-24T18:57:48.433Z,18.40
2019-02-24T19:00:21.977Z,18.10
2019-02-24T19:02:50.388Z,17.60
2019-02-24T19:05:19.871Z,17.97
2019-02-24T19:07:48.318Z,17.80
2019-02-24T19:10:21.204Z,17.60
2019-02-24T19:12:49.700Z,16.70
2019-02-24T19:15:19.675Z,16.67
2019-02-24T19:17:48.084Z,19.03
2019-02-24T19:20:23.781Z,16.83
2019-02-24T19:22:52.580Z,18.10
2019-02-24T19:25:21.003Z,18.07
2019-02-24T19:27:49.523Z,17.00
2019-02-24T19:30:19.413Z,17.63
2019-02-24T19:32:47.958Z,17.57
2019-02-24T19:35:17.393Z,18.40
2019-02-24T19:37:46.120Z,18.53
2019-02-24T19:40:21.836Z,18.90
2019-02-24T19:42:50.247Z,20.03
2019-02-24T19:45:25.693Z,20.47
2019-02-24T19:47:54.120Z,19.57
2019-02-24T19:50:22.796Z,19.53
2019-02-24T19:52:51.208Z,19.77
2019-02-24T19:55:19.616Z,19.70
2019-02-24T19:57:48.034Z,19.20
2019-02-24T20:00:23.304Z,20.73
2019-02-24T20:02:51.879Z,20.73
2019-02-24T20:05:21.033Z,42.37
2019-02-24T20:07:49.455Z,21.77
2019-02-24T20:10:20.203Z,20.30
2019-02-24T20:12:48.672Z,21.57
2019-02-24T20:15:17.631Z,20.17
2019-02-24T20:17:46.033Z,22.27
2019-02-24T20:20:16.173Z,20.40
2019-02-24T20:22:44.865Z,21.60
2019-02-24T20:25:18.520Z,18.93
2019-02-24T20:27:46.962Z,21.33
2019-02-24T20:30:29.696Z,19.63
2019-02-24T20:32:58.184Z,21.10
2019-02-24T20:35:26.587Z,21.27
2019-02-24T20:37:54.996Z,19.77
2019-02-24T20:40:23.428Z,20.77
2019-02-24T20:42:51.856Z,19.30
2019-02-24T20:45:21.890Z,21.23
2019-02-24T20:47:50.397Z,21.80
2019-02-24T20:50:24.112Z,19.93
2019-02-24T20:52:52.530Z,21.50
2019-02-24T20:55:20.949Z,22.80
2019-02-24T20:57:49.369Z,23.33
2019-02-24T21:00:29.928Z,20.90
2019-02-24T21:02:58.348Z,21.97
2019-02-24T21:05:26.832Z,22.20
2019-02-24T21:07:55.414Z,21.60
2019-02-24T21:10:23.816Z,21.00
2019-02-24T21:12:52.292Z,21.83
2019-02-24T21:15:20.722Z,23.27
2019-02-24T21:17:49.136Z,23.43
2019-02-24T21:20:23.745Z,23.17
2019-02-24T21:22:52.155Z,23.80
2019-02-24T21:25:20.642Z,24.20
2019-02-24T21:27:49.085Z,23.90
2019-02-24T21:30:19.531Z,22.60
2019-02-24T21:32:48.319Z,26.20
2019-02-24T21:35:17.580Z,24.00
2019-02-24T21:37:46.308Z,25.33
2019-02-24T21:40:18.709Z,25.17
2019-02-24T21:42:47.214Z,23.03
2019-02-24T21:45:23.729Z,25.30
2019-02-24T21:47:52.140Z,25.27
2019-02-24T21:50:20.646Z,25.13
2019-02-24T21:52:49.065Z,24.30
2019-02-24T21:55:17.464Z,25.17
2019-02-24T21:57:46.002Z,23.93
2019-02-24T22:00:17.679Z,25.30
2019-02-24T22:02:46.154Z,24.93
2019-02-24T22:05:14.586Z,23.60
2019-02-24T22:07:43.353Z,25.70
2019-02-24T22:10:13.608Z,24.60
2019-02-24T22:12:42.037Z,25.97
2019-02-24T22:15:15.975Z,26.67
2019-02-24T22:17:44.404Z,24.50
2019-02-24T22:20:14.561Z,25.30
2019-02-24T22:22:43.046Z,25.47
2019-02-24T22:25:13.102Z,24.30
2019-02-24T22:27:41.508Z,23.37
2019-02-24T22:30:18.729Z,25.60
2019-02-24T22:32:47.249Z,22.67
2019-02-24T22:35:15.689Z,23.13
2019-02-24T22:37:44.080Z,25.43
2019-02-24T22:40:13.550Z,24.33
2019-02-24T22:42:42.188Z,24.93
2019-02-24T22:45:16.848Z,24.90
2019-02-24T22:47:45.762Z,26.17
2019-02-24T22:50:15.335Z,25.53
2019-02-24T22:52:44.275Z,25.03
2019-02-24T22:55:17.613Z,25.60
2019-02-24T22:57:46.388Z,24.77
2019-02-24T23:00:31.360Z,25.97
2019-02-24T23:03:00.055Z,24.30
2019-02-24T23:05:28.805Z,24.07
2019-02-24T23:07:58.853Z,25.90
2019-02-24T23:10:27.541Z,25.00
2019-02-24T23:12:55.964Z,24.80
2019-02-24T23:15:24.390Z,25.37
2019-02-24T23:17:52.804Z,26.53
2019-02-24T23:20:21.218Z,25.37
2019-02-24T23:22:49.764Z,26.20
2019-02-24T23:25:18.161Z,25.07
2019-02-24T23:27:46.583Z,24.00
2019-02-24T23:30:14.997Z,25.83
2019-02-24T23:32:43.404Z,25.47
2019-02-24T23:35:11.816Z,24.50
2019-02-24T23:37:40.238Z,24.40
2019-02-24T23:40:09.584Z,24.73
2019-02-24T23:42:38.310Z,25.53
2019-02-24T23:45:10.644Z,23.47
2019-02-24T23:47:39.821Z,24.27
2019-02-24T23:50:10.837Z,25.60
2019-02-24T23:52:39.285Z,26.00
2019-02-24T23:55:09.148Z,25.90
2019-02-24T23:57:37.561Z,24.60
